createdAt,value
2019-02-27T00:02:30.236Z,26.60
2019-02-27T00:05:00.313Z,26.73
2019-02-27T00:07:30.275Z,25.40
2019-02-27T00:10:00.486Z,24.73
2019-02-27T00:12:30.397Z,24.93
2019-02-27T00:15:02.207Z,24.17
2019-02-27T00:17:32.296Z,23.80
2019-02-27T00:20:05.087Z,24.17
2019-02-27T00:22:34.380Z,23.97
2019-02-27T00:25:04.800Z,24.67
2019-02-27T00:27:34.791Z,22.37
2019-02-27T00:30:06.915Z,22.50
2019-02-27T00:32:36.984Z,23.50
2019-02-27T00:35:07.525Z,24.83
2019-02-27T00:37:37.985Z,22.47
2019-02-27T00:40:08.732Z,22.87
2019-02-27T00:42:38.726Z,21.47
2019-02-27T00:45:12.055Z,21.80
2019-02-27T00:47:42.261Z,21.33
2019-02-27T00:50:12.231Z,21.93
2019-02-27T00:52:42.776Z,22.03
2019-02-27T00:55:13.082Z,22.57
2019-02-27T00:57:43.188Z,22.37
2019-02-27T01:00:19.000Z,22.53
2019-02-27T01:02:52.639Z,27.10
2019-02-27T01:05:21.075Z,26.33
2019-02-27T01:07:53.793Z,23.60
2019-02-27T01:10:23.379Z,24.73
2019-02-27T01:12:57.670Z,25.37
2019-02-27T01:15:25.764Z,25.20
2019-02-27T01:17:57.451Z,23.10
2019-02-27T01:20:27.750Z,22.00
2019-02-27T01:22:57.666Z,21.93
2019-02-27T01:25:28.488Z,21.13
2019-02-27T01:27:58.646Z,21.70
2019-02-27T01:30:28.979Z,20.90
2019-02-27T01:33:03.990Z,20.80
2019-02-27T01:35:31.061Z,20.87
2019-02-27T01:38:05.075Z,20.27
2019-02-27T01:40:32.755Z,21.63
2019-02-27T01:43:05.478Z,21.47
2019-02-27T01:45:34.461Z,22.03
2019-02-27T01:48:08.934Z,21.20
2019-02-27T01:50:37.648Z,21.40
2019-02-27T01:53:08.185Z,21.60
2019-02-27T01:55:38.823Z,21.33
2019-02-27T01:58:09.555Z,20.47
2019-02-27T02:00:40.719Z,21.23
2019-02-27T02:03:11.185Z,21.93
2019-02-27T02:05:42.699Z,21.53
2019-02-27T02:08:13.958Z,21.50
2019-02-27T02:10:44.300Z,20.87
2019-02-27T02:13:18.737Z,20.80
2019-02-27T02:16:02.029Z,21.20
2019-02-27T02:18:39.040Z,21.33
2019-02-27T02:21:32.050Z,20.93
2019-02-27T02:24:29.954Z,21.13
2019-02-27T02:27:16.285Z,20.27
2019-02-27T02:30:02.517Z,21.00
2019-02-27T02:32:52.014Z,20.30
2019-02-27T02:35:51.135Z,20.17
2019-02-27T02:39:01.221Z,19.67
2019-02-27T02:41:52.272Z,19.13
2019-02-27T02:44:41.846Z,20.60
2019-02-27T02:47:30.830Z,19.40
2019-02-27T02:50:38.490Z,19.67
2019-02-27T02:54:00.690Z,20.57
2019-02-27T02:56:38.574Z,19.63
2019-02-27T02:59:47.555Z,20.00
2019-02-27T03:02:40.038Z,20.13
2019-02-27T03:05:43.967Z,20.10
2019-02-27T03:08:42.385Z,19.40
2019-02-27T03:11:54.761Z,19.50
2019-02-27T03:14:35.793Z,18.70
2019-02-27T03:17:37.551Z,19.60
2019-02-27T03:20:26.831Z,18.73
2019-02-27T03:23:32.430Z,20.10
2019-02-27T03:26:09.620Z,17.87
2019-02-27T03:28:59.191Z,19.23
2019-02-27T03:32:03.424Z,19.57
2019-02-27T03:35:15.007Z,18.90
2019-02-27T03:38:04.186Z,17.97
2019-02-27T03:41:04.088Z,18.63
2019-02-27T03:44:06.933Z,18.93
2019-02-27T03:46:47.162Z,19.20
2019-02-27T03:49:40.866Z,19.10
2019-02-27T03:52:43.949Z,19.37
2019-02-27T03:55:34.564Z,19.80
2019-02-27T03:58:36.629Z,19.90
2019-02-27T04:01:39.664Z,18.93
2019-02-27T04:04:30.564Z,19.40
2019-02-27T04:07:31.899Z,19.77
2019-02-27T04:10:02.294Z,19.03
2019-02-27T04:12:32.138Z,19.27
2019-02-27T04:15:02.227Z,18.73
2019-02-27T04:17:30.364Z,18.93
2019-02-27T04:20:00.320Z,19.03
2019-02-27T04:22:30.286Z,19.67
2019-02-27T04:25:00.596Z,19.00
2019-02-27T04:27:30.505Z,18.77
2019-02-27T04:30:00.521Z,19.37
2019-02-27T04:32:30.430Z,18.57
2019-02-27T04:35:00.638Z,19.43
2019-02-27T04:37:30.554Z,18.40
2019-02-27T04:40:00.564Z,18.83
2019-02-27T04:42:30.481Z,18.47
2019-02-27T04:45:00.393Z,19.00
2019-02-27T04:47:30.405Z,20.00
2019-02-27T04:50:00.317Z,19.13
2019-02-27T04:52:30.524Z,18.80
2019-02-27T04:55:00.439Z,19.50
2019-02-27T04:57:33.397Z,19.20
2019-02-27T05:00:02.250Z,19.43
2019-02-27T05:02:32.149Z,19.40
2019-02-27T05:05:02.062Z,18.80
2019-02-27T05:07:31.971Z,19.37
2019-02-27T05:10:01.885Z,18.60
2019-02-27T05:12:31.851Z,18.67
2019-02-27T05:15:04.059Z,18.60
2019-02-27T05:17:33.550Z,19.40
2019-02-27T05:20:04.391Z,18.50
2019-02-27T05:22:34.506Z,19.30
2019-02-27T05:25:04.906Z,18.33
2019-02-27T05:27:34.821Z,18.00
2019-02-27T05:30:06.919Z,18.33
2019-02-27T05:32:36.907Z,18.60
2019-02-27T05:35:07.412Z,17.40
2019-02-27T05:37:39.301Z,17.73
2019-02-27T05:40:11.636Z,17.53
2019-02-27T05:42:41.870Z,16.53
2019-02-27T05:45:13.998Z,16.80
2019-02-27T05:47:45.789Z,16.27
2019-02-27T05:50:15.933Z,18.30
2019-02-27T05:52:48.714Z,18.07
2019-02-27T05:55:17.733Z,18.17
2019-02-27T05:57:48.034Z,18.13
2019-02-27T06:00:21.788Z,17.83
2019-02-27T06:02:51.853Z,18.00
2019-02-27T06:05:21.929Z,18.87
2019-02-27T06:07:51.918Z,18.47
2019-02-27T06:10:23.607Z,18.17
2019-02-27T06:12:53.455Z,19.63
2019-02-27T06:15:26.060Z,19.57
2019-02-27T06:17:55.599Z,18.93
2019-02-27T06:20:25.510Z,18.13
2019-02-27T06:22:55.621Z,18.67
2019-02-27T06:25:25.732Z,17.77
2019-02-27T06:27:55.647Z,18.87
2019-02-27T06:30:27.970Z,17.70
2019-02-27T06:32:57.634Z,19.13
2019-02-27T06:35:27.547Z,19.20
2019-02-27T06:37:57.462Z,19.07
2019-02-27T06:40:27.279Z,20.13
2019-02-27T06:42:57.189Z,18.50
2019-02-27T06:45:27.497Z,19.83
2019-02-27T06:47:57.445Z,19.63
2019-02-27T06:50:27.329Z,19.50
2019-02-27T06:52:57.532Z,20.07
2019-02-27T06:55:28.051Z,19.80
2019-02-27T06:57:58.735Z,19.70
2019-02-27T07:00:28.752Z,19.83
2019-02-27T07:02:58.762Z,20.40
2019-02-27T07:05:28.672Z,22.67
2019-02-27T07:07:58.586Z,23.77
2019-02-27T07:10:28.598Z,22.83
2019-02-27T07:12:58.511Z,23.33
2019-02-27T07:15:28.965Z,21.70
2019-02-27T07:17:58.930Z,22.83
2019-02-27T07:20:28.848Z,24.07
2019-02-27T07:22:59.252Z,25.53
2019-02-27T07:25:29.359Z,24.53
2019-02-27T07:27:59.466Z,22.80
2019-02-27T07:30:29.778Z,20.93
2019-02-27T07:32:59.784Z,20.33
2019-02-27T07:35:29.701Z,21.03
2019-02-27T07:37:59.617Z,21.63
2019-02-27T07:40:30.022Z,22.53
2019-02-27T07:42:59.930Z,21.60
2019-02-27T07:45:29.945Z,20.80
2019-02-27T07:47:59.856Z,21.93
2019-02-27T07:50:29.770Z,21.67
2019-02-27T07:52:59.879Z,22.97
2019-02-27T07:55:30.185Z,22.47
2019-02-27T07:58:00.102Z,23.23
2019-02-27T08:00:30.013Z,22.30
2019-02-27T08:03:00.309Z,22.60
2019-02-27T08:05:30.527Z,22.80
2019-02-27T08:08:00.937Z,23.80
2019-02-27T08:10:30.946Z,23.33
2019-02-27T08:13:01.053Z,22.97
2019-02-27T08:15:31.361Z,23.27
2019-02-27T08:18:01.408Z,23.03
2019-02-27T08:20:31.385Z,23.10
2019-02-27T08:23:01.298Z,23.23
2019-02-27T08:25:31.215Z,23.57
2019-02-27T08:28:01.131Z,23.13
2019-02-27T08:30:31.239Z,22.80
2019-02-27T08:33:01.150Z,22.17
2019-02-27T08:35:31.852Z,24.27
2019-02-27T08:38:02.972Z,22.50
2019-02-27T08:40:32.957Z,24.50
2019-02-27T08:43:02.872Z,24.60
2019-02-27T08:45:32.787Z,24.77
2019-02-27T08:48:02.703Z,24.27
2019-02-27T08:50:32.607Z,24.20
2019-02-27T08:53:02.820Z,25.87
2019-02-27T08:55:33.660Z,24.00
2019-02-27T08:58:03.624Z,24.40
2019-02-27T09:00:34.822Z,23.93
2019-02-27T09:03:05.125Z,24.07
2019-02-27T09:05:35.036Z,24.37
2019-02-27T09:08:07.318Z,22.87
2019-02-27T09:10:36.831Z,22.50
2019-02-27T09:13:07.561Z,22.47
2019-02-27T09:15:38.136Z,21.20
2019-02-27T09:18:09.131Z,22.37
2019-02-27T09:20:39.342Z,21.27
2019-02-27T09:23:09.251Z,22.40
2019-02-27T09:25:39.360Z,22.07
2019-02-27T09:28:10.066Z,21.90
2019-02-27T09:30:40.073Z,22.80
2019-02-27T09:33:10.230Z,22.27
2019-02-27T09:35:40.586Z,22.20
2019-02-27T09:38:10.499Z,22.20
2019-02-27T09:40:40.612Z,20.80
2019-02-27T09:43:11.725Z,21.30
2019-02-27T09:45:46.182Z,20.97
2019-02-27T09:48:13.594Z,21.13
2019-02-27T09:50:48.234Z,20.27
2019-02-27T09:53:18.141Z,21.10
2019-02-27T09:55:48.053Z,20.57
2019-02-27T09:58:17.967Z,19.67
2019-02-27T10:00:59.222Z,20.53
2019-02-27T10:03:27.328Z,18.93
2019-02-27T10:05:57.341Z,19.73
2019-02-27T10:08:27.144Z,19.97
2019-02-27T10:10:57.072Z,19.53
2019-02-27T10:13:27.378Z,18.97
2019-02-27T10:16:00.599Z,18.83
2019-02-27T10:18:29.074Z,19.00
2019-02-27T10:20:59.181Z,18.70
2019-02-27T10:23:31.185Z,18.23
2019-02-27T10:26:00.782Z,18.30
2019-02-27T10:28:30.885Z,18.07
2019-02-27T10:31:00.801Z,17.90
2019-02-27T10:33:30.717Z,17.70
2019-02-27T10:36:03.026Z,17.97
2019-02-27T10:38:32.411Z,17.60
2019-02-27T10:41:02.433Z,18.50
2019-02-27T10:43:32.431Z,17.20
2019-02-27T10:46:02.543Z,17.43
2019-02-27T10:48:32.457Z,17.17
2019-02-27T10:51:02.369Z,17.30
2019-02-27T10:53:32.392Z,17.60
2019-02-27T10:56:02.394Z,16.60
2019-02-27T10:58:32.505Z,16.97
2019-02-27T11:01:02.909Z,16.73
2019-02-27T11:03:32.931Z,16.60
2019-02-27T11:06:02.931Z,16.10
2019-02-27T11:08:32.943Z,17.80
2019-02-27T11:11:02.955Z,15.83
2019-02-27T11:13:32.870Z,16.30
2019-02-27T11:16:03.075Z,16.10
2019-02-27T11:18:32.990Z,15.20
2019-02-27T11:21:03.298Z,15.63
2019-02-27T11:23:33.511Z,15.57
2019-02-27T11:26:03.423Z,15.03
2019-02-27T11:28:33.431Z,15.70
2019-02-27T11:31:03.344Z,14.97
2019-02-27T11:33:33.568Z,15.00
2019-02-27T11:36:05.757Z,15.10
2019-02-27T11:38:35.937Z,14.70
2019-02-27T11:41:05.946Z,15.10
2019-02-27T11:43:37.953Z,14.20
2019-02-27T11:46:08.055Z,15.10
2019-02-27T11:48:38.158Z,13.80
2019-02-27T11:51:08.156Z,13.90
2019-02-27T11:53:38.073Z,14.07
2019-02-27T11:56:08.418Z,14.10
2019-02-27T11:58:39.163Z,14.23
2019-02-27T12:01:12.051Z,13.63
2019-02-27T12:03:45.690Z,13.70
2019-02-27T12:06:13.503Z,12.43
2019-02-27T12:08:43.958Z,13.27
2019-02-27T12:11:14.254Z,13.20
2019-02-27T12:13:44.750Z,13.20
2019-02-27T12:16:18.303Z,13.23
2019-02-27T12:18:46.944Z,12.40
2019-02-27T12:21:17.376Z,12.58
2019-02-27T12:23:47.553Z,12.50
2019-02-27T12:26:17.560Z,12.98
2019-02-27T12:28:52.503Z,12.17
2019-02-27T12:31:19.552Z,12.65
2019-02-27T12:33:49.469Z,11.88
2019-02-27T12:36:19.877Z,11.70
2019-02-27T12:38:49.783Z,12.17
2019-02-27T12:41:19.696Z,12.03
2019-02-27T12:43:52.637Z,10.57
2019-02-27T12:46:21.295Z,10.30
2019-02-27T12:48:51.402Z,10.78
2019-02-27T12:51:21.314Z,9.13
2019-02-27T12:53:54.412Z,8.03
2019-02-27T12:56:23.019Z,8.03
2019-02-27T12:58:53.028Z,8.10
2019-02-27T13:01:22.939Z,8.43
2019-02-27T13:03:52.851Z,7.30
2019-02-27T13:06:22.766Z,7.60
2019-02-27T13:08:53.471Z,7.62
2019-02-27T13:11:23.571Z,7.35
2019-02-27T13:13:53.595Z,7.65
2019-02-27T13:16:23.697Z,6.47
2019-02-27T13:18:54.099Z,6.00
2019-02-27T13:21:24.109Z,6.97
2019-02-27T13:23:55.734Z,6.73
2019-02-27T13:26:25.902Z,5.87
2019-02-27T13:28:55.819Z,5.60
2019-02-27T13:31:26.930Z,5.25
2019-02-27T13:33:57.019Z,4.40
2019-02-27T13:36:26.936Z,5.42
2019-02-27T13:38:59.318Z,4.80
2019-02-27T13:41:29.023Z,4.17
2019-02-27T13:44:01.343Z,5.05
2019-02-27T13:46:30.716Z,4.50
2019-02-27T13:49:00.633Z,4.80
2019-02-27T13:51:30.934Z,4.60
2019-02-27T13:54:01.279Z,4.30
2019-02-27T13:56:31.450Z,3.10
2019-02-27T13:59:01.503Z,3.87
2019-02-27T14:01:31.474Z,4.40
2019-02-27T14:04:01.392Z,4.87
2019-02-27T14:06:31.304Z,4.40
2019-02-27T14:09:01.214Z,3.93
2019-02-27T14:11:31.619Z,3.53
2019-02-27T14:14:01.635Z,3.90
2019-02-27T14:16:34.567Z,3.73
2019-02-27T14:19:03.424Z,3.67
2019-02-27T14:21:35.522Z,3.60
2019-02-27T14:24:05.335Z,3.20
2019-02-27T14:26:35.227Z,4.00
2019-02-27T14:29:05.242Z,3.90
2019-02-27T14:31:35.254Z,4.00
2019-02-27T14:34:05.464Z,3.17
2019-02-27T14:36:35.963Z,2.80
2019-02-27T14:39:08.856Z,2.60
2019-02-27T14:41:38.838Z,2.57
2019-02-27T14:44:09.144Z,2.70
2019-02-27T14:46:39.061Z,2.90
2019-02-27T14:49:09.671Z,3.00
2019-02-27T14:51:41.203Z,3.30
2019-02-27T14:54:11.356Z,4.40
2019-02-27T14:56:41.907Z,4.47
2019-02-27T14:59:12.952Z,4.13
2019-02-27T15:01:42.865Z,4.90
2019-02-27T15:04:12.976Z,5.00
2019-02-27T15:06:43.183Z,4.57
2019-02-27T15:09:13.491Z,4.70
2019-02-27T15:11:44.934Z,4.80
2019-02-27T15:14:15.480Z,4.60
2019-02-27T15:16:49.034Z,4.80
2019-02-27T15:19:18.904Z,4.30
2019-02-27T15:21:49.152Z,5.03
2019-02-27T15:24:19.065Z,4.30
2019-02-27T15:26:50.715Z,4.10
2019-02-27T15:29:21.349Z,3.40
2019-02-27T15:31:52.173Z,4.50
2019-02-27T15:34:22.945Z,4.00
2019-02-27T15:36:53.647Z,5.10
2019-02-27T15:39:23.952Z,4.37
2019-02-27T15:41:53.867Z,4.63
2019-02-27T15:44:23.976Z,4.40
2019-02-27T15:46:56.622Z,4.70
2019-02-27T15:49:25.571Z,4.90
2019-02-27T15:51:55.590Z,4.70
2019-02-27T15:54:25.793Z,4.97
2019-02-27T15:56:55.706Z,4.53
2019-02-27T15:59:25.689Z,4.47
2019-02-27T16:01:55.569Z,4.80
2019-02-27T16:04:26.006Z,5.23
2019-02-27T16:06:55.959Z,4.80
2019-02-27T16:09:26.160Z,4.67
2019-02-27T16:11:56.269Z,4.97
2019-02-27T16:14:26.180Z,4.73
2019-02-27T16:16:57.576Z,5.10
2019-02-27T16:19:27.776Z,4.67
2019-02-27T16:21:57.957Z,4.70
2019-02-27T16:24:28.196Z,4.80
2019-02-27T16:27:01.344Z,5.20
2019-02-27T16:29:30.574Z,4.73
2019-02-27T16:32:00.587Z,5.43
2019-02-27T16:34:33.251Z,4.80
2019-02-27T16:37:02.480Z,4.60
2019-02-27T16:39:32.984Z,4.37
2019-02-27T16:42:05.215Z,4.90
2019-02-27T16:44:35.206Z,4.80
2019-02-27T16:47:05.183Z,6.07
2019-02-27T16:49:35.093Z,5.13
2019-02-27T16:52:07.888Z,5.23
2019-02-27T16:54:36.689Z,5.57
2019-02-27T16:57:07.290Z,5.60
2019-02-27T16:59:37.492Z,5.37
2019-02-27T17:02:07.411Z,5.37
2019-02-27T17:04:37.327Z,5.57
2019-02-27T17:07:07.344Z,5.37
2019-02-27T17:09:37.449Z,5.00
2019-02-27T17:12:07.991Z,5.10
2019-02-27T17:14:39.372Z,4.50
2019-02-27T17:17:09.552Z,4.73
2019-02-27T17:19:39.755Z,5.17
2019-02-27T17:22:10.974Z,5.30
2019-02-27T17:24:40.957Z,4.53
2019-02-27T17:27:12.989Z,4.47
2019-02-27T17:29:42.654Z,4.60
2019-02-27T17:32:12.472Z,4.70
2019-02-27T17:34:47.224Z,4.57
2019-02-27T17:37:14.563Z,4.73
2019-02-27T17:39:45.439Z,4.73
2019-02-27T17:42:18.296Z,4.90
2019-02-27T17:44:47.443Z,5.33
2019-02-27T17:47:17.359Z,5.03
2019-02-27T17:49:47.184Z,4.87
2019-02-27T17:52:17.183Z,5.10
2019-02-27T17:54:47.103Z,4.90
2019-02-27T17:57:17.012Z,5.03
2019-02-27T17:59:46.922Z,5.30
2019-02-27T18:02:16.932Z,4.80
2019-02-27T18:04:51.032Z,5.40
2019-02-27T18:07:18.628Z,5.10
2019-02-27T18:09:48.542Z,5.00
2019-02-27T18:12:18.749Z,8.00
2019-02-27T18:14:48.662Z,6.60
2019-02-27T18:17:18.493Z,7.87
2019-02-27T18:19:50.333Z,13.40
2019-02-27T18:22:20.065Z,11.50
2019-02-27T18:24:50.088Z,28.93
2019-02-27T18:27:24.648Z,26.07
2019-02-27T18:29:51.682Z,30.37
2019-02-27T18:32:21.699Z,23.87
2019-02-27T18:34:54.666Z,23.50
2019-02-27T18:37:24.182Z,23.40
2019-02-27T18:39:54.197Z,33.47
2019-02-27T18:42:24.135Z,27.10
2019-02-27T18:44:54.416Z,26.53
2019-02-27T18:47:24.321Z,26.50
2019-02-27T18:49:54.353Z,21.73
2019-02-27T18:52:24.648Z,23.40
2019-02-27T18:54:55.617Z,23.17
2019-02-27T18:57:25.713Z,23.00
2019-02-27T18:59:57.480Z,21.77
2019-02-27T19:02:27.546Z,17.33
2019-02-27T19:04:57.649Z,16.10
2019-02-27T19:07:27.965Z,14.90
2019-02-27T19:09:58.512Z,14.60
2019-02-27T19:12:28.731Z,13.90
2019-02-27T19:14:59.130Z,13.67
2019-02-27T19:17:32.081Z,14.63
2019-02-27T19:20:00.981Z,14.90
2019-02-27T19:22:31.269Z,14.13
2019-02-27T19:25:01.281Z,14.03
2019-02-27T19:27:31.594Z,14.43
2019-02-27T19:30:06.291Z,14.97
2019-02-27T19:32:33.677Z,15.53
2019-02-27T19:35:03.770Z,16.07
2019-02-27T19:37:38.688Z,17.20
2019-02-27T19:40:15.539Z,28.20
2019-02-27T19:43:04.997Z,30.07
2019-02-27T19:45:35.805Z,48.40
2019-02-27T19:48:07.202Z,43.53
2019-02-27T19:50:37.572Z,40.60
2019-02-27T19:53:08.772Z,39.63
2019-02-27T19:55:39.419Z,37.07
2019-02-27T19:58:09.682Z,35.90
2019-02-27T20:00:47.941Z,43.73
2019-02-27T20:03:11.854Z,45.17
2019-02-27T20:05:41.876Z,43.40
2019-02-27T20:08:11.976Z,42.53
2019-02-27T20:10:44.059Z,38.83
2019-02-27T20:13:14.175Z,38.20
2019-02-27T20:15:45.481Z,31.77
2019-02-27T20:18:16.757Z,27.70
2019-02-27T20:20:47.247Z,23.13
2019-02-27T20:23:17.354Z,23.97
2019-02-27T20:25:47.857Z,24.97
2019-02-27T20:28:17.770Z,23.80
2019-02-27T20:30:48.289Z,23.50
2019-02-27T20:33:18.641Z,23.33
2019-02-27T20:35:48.790Z,22.87
2019-02-27T20:38:19.787Z,23.57
2019-02-27T20:40:49.697Z,24.50
2019-02-27T20:43:19.807Z,24.97
2019-02-27T20:45:49.860Z,25.97
2019-02-27T20:48:19.828Z,25.37
2019-02-27T20:50:55.336Z,25.33
2019-02-27T20:53:25.555Z,26.13
2019-02-27T20:55:55.510Z,27.10
2019-02-27T20:58:25.580Z,28.23
2019-02-27T21:00:55.886Z,28.80
2019-02-27T21:03:27.359Z,29.43
2019-02-27T21:05:57.594Z,27.70
2019-02-27T21:08:27.493Z,26.07
2019-02-27T21:10:57.506Z,24.70
2019-02-27T21:13:27.710Z,24.03
2019-02-27T21:15:57.723Z,24.37
2019-02-27T21:18:29.118Z,24.33
2019-02-27T21:20:59.417Z,23.43
2019-02-27T21:23:31.802Z,23.63
2019-02-27T21:26:01.358Z,22.27
2019-02-27T21:28:31.517Z,18.37
2019-02-27T21:31:01.527Z,17.40
2019-02-27T21:33:31.636Z,18.00
2019-02-27T21:36:03.364Z,28.17
2019-02-27T21:38:33.334Z,22.47
2019-02-27T21:41:03.447Z,22.00
2019-02-27T21:43:33.420Z,18.87
2019-02-27T21:46:03.564Z,18.47
2019-02-27T21:48:34.171Z,18.97
2019-02-27T21:51:04.675Z,18.03
2019-02-27T21:53:34.955Z,18.20
2019-02-27T21:56:04.950Z,18.03
2019-02-27T21:58:34.997Z,17.77
2019-02-27T22:01:05.206Z,18.53
2019-02-27T22:03:38.404Z,21.97
2019-02-27T22:06:07.443Z,26.77
2019-02-27T22:08:38.913Z,23.40
2019-02-27T22:11:09.004Z,21.73
2019-02-27T22:13:42.083Z,18.67
2019-02-27T22:16:10.979Z,19.23
2019-02-27T22:18:41.182Z,16.70
2019-02-27T22:21:11.199Z,17.53
2019-02-27T22:23:41.018Z,17.00
2019-02-27T22:26:11.420Z,17.07
2019-02-27T22:28:41.528Z,16.87
2019-02-27T22:31:11.443Z,16.03
2019-02-27T22:33:41.844Z,15.10
2019-02-27T22:36:12.819Z,14.30
2019-02-27T22:38:43.734Z,13.50
2019-02-27T22:41:13.913Z,14.37
2019-02-27T22:43:44.063Z,14.33
2019-02-27T22:46:16.494Z,14.07
2019-02-27T22:48:45.677Z,14.27
2019-02-27T22:51:15.859Z,14.03
2019-02-27T22:53:45.727Z,13.23
2019-02-27T22:56:16.870Z,12.80
2019-02-27T22:58:49.399Z,12.63
2019-02-27T23:01:22.919Z,13.03
2019-02-27T23:03:57.908Z,13.17
2019-02-27T23:06:28.426Z,13.40
2019-02-27T23:08:59.900Z,15.50
2019-02-27T23:11:30.205Z,13.50
2019-02-27T23:14:00.125Z,13.73
2019-02-27T23:16:30.611Z,14.40
2019-02-27T23:19:00.978Z,13.43
2019-02-27T23:21:30.937Z,13.57
2019-02-27T23:24:00.864Z,13.70
2019-02-27T23:26:31.064Z,14.43
2019-02-27T23:29:01.072Z,14.47
2019-02-27T23:31:31.006Z,13.80
2019-02-27T23:34:01.001Z,14.63
2019-02-27T23:36:31.008Z,14.80
2019-02-27T23:39:00.927Z,14.20
2019-02-27T23:41:30.934Z,13.33
2019-02-27T23:44:00.947Z,13.33
2019-02-27T23:46:30.860Z,13.50
2019-02-27T23:49:00.871Z,13.80
2019-02-27T23:51:31.178Z,14.47
2019-02-27T23:54:02.013Z,13.47
2019-02-27T23:56:32.085Z,13.80
2019-02-27T23:59:02.571Z,13.60
